Time;durP1;ratioP1;P1;durP2;ratioP2;P2;SDS_P1;SDS_P2;PMS_P1;PMS_P2;Temp;Humidity;BMP_temperature;BMP_pressure;BME280_temperature;BME280_humidity;BME280_pressure;Samples;Min_cycle;Max_cycle;Signal;HPM_P1;HPM_P2
2022/06/27 00:00:17;;;;;;;64.40;50.67;;;23.30;63.50;;;;;;4960701;28;99125;-62
2022/06/27 00:02:43;;;;;;;65.82;50.92;;;23.30;63.40;;;;;;4972946;28;96622;-62
2022/06/27 00:05:10;;;;;;;65.88;50.47;;;23.20;63.50;;;;;;4968401;28;96748;-62
2022/06/27 00:07:36;;;;;;;64.22;50.83;;;23.20;63.70;;;;;;4970914;28;95820;-63
2022/06/27 00:10:03;;;;;;;63.58;50.47;;;23.20;63.50;;;;;;4969873;28;96222;-62
2022/06/27 00:12:29;;;;;;;64.22;50.65;;;23.20;63.70;;;;;;4962672;28;95558;-62
2022/06/27 00:14:54;;;;;;;64.38;50.78;;;23.20;63.70;;;;;;4966436;28;95130;-62
2022/06/27 00:17:20;;;;;;;63.78;50.60;;;23.10;63.70;;;;;;4971141;28;97354;-62
2022/06/27 00:19:45;;;;;;;63.67;50.45;;;23.20;63.90;;;;;;4956181;28;95128;-62
2022/06/27 00:22:11;;;;;;;64.78;50.70;;;23.20;63.80;;;;;;4973219;28;96329;-62
2022/06/27 00:24:37;;;;;;;64.90;50.63;;;23.20;63.80;;;;;;4960747;28;98394;-62
2022/06/27 00:27:02;;;;;;;64.53;50.63;;;23.20;63.70;;;;;;4962431;28;97148;-62
2022/06/27 00:29:28;;;;;;;64.13;50.60;;;23.10;63.70;;;;;;4948760;28;96949;-62
2022/06/27 00:31:54;;;;;;;64.35;50.50;;;23.10;63.90;;;;;;4963621;28;94968;-62
2022/06/27 00:34:20;;;;;;;64.28;50.45;;;23.10;63.90;;;;;;4977451;28;95154;-62
2022/06/27 00:36:45;;;;;;;64.15;50.63;;;23.10;64.00;;;;;;4963822;28;98440;-62
2022/06/27 00:39:11;;;;;;;64.03;50.83;;;23.10;64.00;;;;;;4969479;28;94779;-62
2022/06/27 00:41:37;;;;;;;64.40;50.72;;;23.10;64.10;;;;;;4963876;28;96170;-62
2022/06/27 00:44:03;;;;;;;65.05;50.47;;;23.10;64.30;;;;;;4971303;28;94366;-62
2022/06/27 00:46:29;;;;;;;64.18;50.45;;;23.00;64.30;;;;;;4961889;28;101370;-62
2022/06/27 00:48:56;;;;;;;63.75;50.67;;;23.10;64.30;;;;;;4971632;28;96331;-62
2022/06/27 00:51:24;;;;;;;64.53;50.50;;;23.00;64.30;;;;;;4960702;28;100861;-63
2022/06/27 00:53:53;;;;;;;65.43;50.83;;;23.10;64.20;;;;;;4968046;28;96199;-62
2022/06/27 00:56:19;;;;;;;65.20;50.85;;;23.10;64.30;;;;;;4960045;28;96372;-62
2022/06/27 00:58:45;;;;;;;63.80;50.50;;;23.10;64.30;;;;;;4967452;28;95776;-62
2022/06/27 01:01:11;;;;;;;63.95;50.60;;;23.00;64.20;;;;;;4963904;28;95211;-62
2022/06/27 01:03:37;;;;;;;64.30;50.85;;;23.10;64.30;;;;;;4969164;28;100719;-62
2022/06/27 01:06:03;;;;;;;65.13;50.63;;;23.10;64.30;;;;;;4963537;28;96260;-62
2022/06/27 01:08:29;;;;;;;63.60;50.67;;;23.00;64.50;;;;;;4971604;28;94653;-62
2022/06/27 01:10:55;;;;;;;64.45;50.75;;;23.10;64.60;;;;;;4972730;28;95199;-62
2022/06/27 01:13:21;;;;;;;65.28;50.78;;;23.00;64.40;;;;;;4973000;28;95227;-62
2022/06/27 01:15:47;;;;;;;63.75;50.53;;;23.10;64.50;;;;;;4968343;28;96846;-62
2022/06/27 01:18:13;;;;;;;63.60;50.58;;;23.10;64.50;;;;;;4970593;28;97495;-62
2022/06/27 01:20:45;;;;;;;63.60;50.42;;;23.10;64.40;;;;;;4973885;28;95300;-62
2022/06/27 01:23:11;;;;;;;63.95;50.63;;;23.10;64.60;;;;;;4970589;28;98434;-62
2022/06/27 01:25:38;;;;;;;63.55;50.30;;;23.00;64.40;;;;;;4974988;28;95975;-62
2022/06/27 01:28:05;;;;;;;63.83;50.55;;;23.10;64.50;;;;;;4971482;28;95111;-62
2022/06/27 01:30:31;;;;;;;63.67;50.72;;;23.00;64.60;;;;;;4976405;28;95729;-62
2022/06/27 01:32:56;;;;;;;63.53;50.45;;;23.00;64.40;;;;;;4959262;28;100088;-62
2022/06/27 01:35:22;;;;;;;63.47;50.53;;;23.00;64.40;;;;;;4972026;28;95288;-62
2022/06/27 01:37:48;;;;;;;63.88;50.28;;;23.00;64.50;;;;;;4972710;28;97386;-62
2022/06/27 01:40:15;;;;;;;63.47;50.25;;;23.00;64.60;;;;;;4981602;28;96507;-62
2022/06/27 01:42:41;;;;;;;63.45;50.45;;;23.00;64.40;;;;;;4968790;28;95721;-62
2022/06/27 01:45:08;;;;;;;64.25;50.78;;;23.00;64.40;;;;;;4974827;28;95441;-62
2022/06/27 01:47:34;;;;;;;63.45;50.30;;;23.00;64.40;;;;;;4963518;28;96741;-62
2022/06/27 01:49:59;;;;;;;65.13;50.70;;;23.00;64.60;;;;;;4980016;28;96320;-62
2022/06/27 01:52:28;;;;;;;64.97;50.55;;;23.00;64.70;;;;;;4971010;28;95312;-62
2022/06/27 01:54:57;;;;;;;64.43;50.80;;;23.00;64.70;;;;;;4970198;28;96527;-62
2022/06/27 01:57:23;;;;;;;64.22;50.55;;;23.00;64.70;;;;;;4966605;28;94847;-62
2022/06/27 01:59:50;;;;;;;63.83;50.55;;;22.90;64.60;;;;;;4969870;28;96705;-62
2022/06/27 02:02:18;;;;;;;63.90;50.63;;;22.90;64.80;;;;;;4969397;28;95407;-62
2022/06/27 02:04:44;;;;;;;63.70;50.42;;;22.90;64.90;;;;;;4975677;28;97204;-62
2022/06/27 02:07:11;;;;;;;63.17;50.45;;;22.90;64.80;;;;;;4970591;28;97664;-63
2022/06/27 02:09:37;;;;;;;63.10;50.40;;;22.90;64.90;;;;;;4970690;28;95710;-62
2022/06/27 02:12:18;;;;;;;64.20;50.53;;;22.80;65.00;;;;;;4973584;28;94767;-62
2022/06/27 02:14:45;;;;;;;63.63;50.35;;;22.80;65.00;;;;;;4973372;28;101248;-62
2022/06/27 02:17:11;;;;;;;64.13;50.58;;;22.90;65.20;;;;;;4972713;28;94971;-62
2022/06/27 02:19:37;;;;;;;63.20;50.33;;;22.80;65.00;;;;;;4968860;28;95463;-62
2022/06/27 02:22:03;;;;;;;62.92;50.17;;;22.80;65.10;;;;;;4973474;28;96259;-62
2022/06/27 02:24:29;;;;;;;64.10;50.47;;;22.80;65.00;;;;;;4965900;28;95281;-62
2022/06/27 02:26:55;;;;;;;63.60;50.38;;;22.80;65.10;;;;;;4966614;28;96123;-62
2022/06/27 02:29:21;;;;;;;63.40;50.50;;;22.80;65.00;;;;;;4971207;28;95937;-62
2022/06/27 02:31:50;;;;;;;63.25;50.25;;;22.80;65.10;;;;;;4966482;28;97060;-62
2022/06/27 02:34:17;;;;;;;63.47;50.38;;;22.70;65.30;;;;;;4967826;28;95338;-62
2022/06/27 02:36:46;;;;;;;63.60;50.53;;;22.80;65.20;;;;;;4969271;28;94983;-62
2022/06/27 02:39:13;;;;;;;63.42;50.22;;;22.80;65.10;;;;;;4967895;28;97997;-62
2022/06/27 02:41:40;;;;;;;64.05;50.55;;;22.80;65.20;;;;;;4972588;28;95330;-62
2022/06/27 02:44:08;;;;;;;62.90;50.28;;;22.70;65.10;;;;;;4965426;28;102412;-62
2022/06/27 02:46:34;;;;;;;63.67;50.40;;;22.70;65.10;;;;;;4967803;28;95209;-62
2022/06/27 02:49:01;;;;;;;63.40;50.40;;;22.70;65.10;;;;;;4965352;28;95615;-62
2022/06/27 02:51:33;;;;;;;63.35;50.15;;;22.80;65.10;;;;;;4972116;28;96028;-62
2022/06/27 02:54:07;;;;;;;63.03;50.38;;;22.70;65.20;;;;;;4958208;28;101835;-62
2022/06/27 02:56:38;;;;;;;63.15;50.22;;;22.70;65.30;;;;;;4970579;28;96120;-61
2022/06/27 02:59:10;;;;;;;63.10;50.25;;;22.70;65.50;;;;;;4960944;28;95730;-62
2022/06/27 03:01:38;;;;;;;63.40;50.47;;;22.60;65.40;;;;;;4972231;28;95644;-62
2022/06/27 03:04:04;;;;;;;62.80;50.13;;;22.70;65.50;;;;;;4965390;28;95231;-62
2022/06/27 03:06:30;;;;;;;64.60;50.53;;;22.70;65.50;;;;;;4968077;28;101717;-62
2022/06/27 03:08:56;;;;;;;63.25;50.28;;;22.70;65.30;;;;;;4965931;28;95251;-62
2022/06/27 03:11:23;;;;;;;63.03;50.38;;;22.70;65.40;;;;;;4972359;28;94417;-62
2022/06/27 03:13:50;;;;;;;63.75;50.45;;;22.60;65.50;;;;;;4961491;28;96282;-62
2022/06/27 03:16:18;;;;;;;64.07;50.47;;;22.70;65.40;;;;;;4969126;28;96898;-62
2022/06/27 03:18:44;;;;;;;63.55;50.35;;;22.70;65.30;;;;;;4969253;28;97423;-62
2022/06/27 03:21:11;;;;;;;63.30;50.53;;;22.70;65.40;;;;;;4970561;28;96412;-62
2022/06/27 03:23:38;;;;;;;63.28;50.33;;;22.70;65.40;;;;;;4962959;28;98004;-62
2022/06/27 03:26:04;;;;;;;63.10;50.25;;;22.70;65.40;;;;;;4970529;28;95028;-62
2022/06/27 03:28:29;;;;;;;63.67;50.35;;;22.60;65.50;;;;;;4970048;28;95525;-62
2022/06/27 03:30:55;;;;;;;62.95;50.15;;;22.60;65.60;;;;;;4965190;28;95478;-62
2022/06/27 03:33:21;;;;;;;63.42;50.30;;;22.60;65.60;;;;;;4966088;28;96331;-62
2022/06/27 03:35:46;;;;;;;64.20;50.25;;;22.60;65.50;;;;;;4968909;28;94933;-62
2022/06/27 03:38:12;;;;;;;64.78;50.55;;;22.70;65.40;;;;;;4966577;28;95642;-62
2022/06/27 03:40:38;;;;;;;63.03;50.30;;;22.60;65.30;;;;;;4965851;28;98537;-62
2022/06/27 03:43:04;;;;;;;64.10;50.50;;;22.70;65.40;;;;;;4966826;28;97194;-61
2022/06/27 03:45:30;;;;;;;64.97;50.83;;;22.70;65.40;;;;;;4967690;28;95503;-62
2022/06/27 03:47:58;;;;;;;62.85;50.15;;;22.60;65.30;;;;;;4967788;28;97245;-62
2022/06/27 03:50:25;;;;;;;63.50;50.55;;;22.70;65.40;;;;;;4971891;28;96464;-62
2022/06/27 03:52:53;;;;;;;63.45;50.25;;;22.60;65.40;;;;;;4967189;28;95566;-61
2022/06/27 03:55:19;;;;;;;63.28;50.60;;;22.60;65.40;;;;;;4964220;28;95802;-62
2022/06/27 03:57:58;;;;;;;63.13;50.25;;;22.60;65.30;;;;;;4966644;28;97065;-62
2022/06/27 04:00:32;;;;;;;63.40;50.22;;;22.60;65.30;;;;;;4963917;28;97665;-62
2022/06/27 04:02:58;;;;;;;62.88;50.05;;;22.60;65.40;;;;;;4959205;28;95324;-62
2022/06/27 04:05:24;;;;;;;63.15;50.35;;;22.60;65.10;;;;;;4967606;28;96937;-62
2022/06/27 04:07:50;;;;;;;62.97;50.25;;;22.60;66.30;;;;;;4970357;28;99237;-62
2022/06/27 04:10:16;;;;;;;63.25;50.47;;;22.60;65.50;;;;;;4967183;28;98902;-62
2022/06/27 04:12:42;;;;;;;63.65;50.45;;;22.50;66.30;;;;;;4972965;28;95937;-62
2022/06/27 04:15:09;;;;;;;66.00;50.28;;;22.60;65.50;;;;;;4962234;28;95348;-62
2022/06/27 04:17:35;;;;;;;64.07;50.13;;;22.50;65.50;;;;;;4972370;28;95450;-62
2022/06/27 04:20:02;;;;;;;63.60;50.28;;;22.60;65.50;;;;;;4964518;28;95156;-62
2022/06/27 04:22:28;;;;;;;63.33;50.60;;;22.60;65.40;;;;;;4973949;28;95259;-62
2022/06/27 04:24:55;;;;;;;65.47;50.42;;;22.60;65.20;;;;;;4963411;28;93985;-62
2022/06/27 04:27:20;;;;;;;63.67;50.55;;;22.60;65.30;;;;;;4976007;28;95391;-62
2022/06/27 04:29:49;;;;;;;63.90;50.55;;;22.60;65.30;;;;;;4965862;28;95364;-61
2022/06/27 04:32:17;;;;;;;65.60;50.53;;;22.60;65.20;;;;;;4977303;28;96251;-62
2022/06/27 04:34:43;;;;;;;64.03;50.70;;;22.60;65.30;;;;;;4970260;28;100888;-61
2022/06/27 04:37:09;;;;;;;66.40;50.75;;;22.60;65.40;;;;;;4976824;28;100818;-62
2022/06/27 04:39:35;;;;;;;66.43;50.78;;;22.60;65.30;;;;;;4976106;28;95383;-62
2022/06/27 04:42:01;;;;;;;66.68;51.00;;;22.60;65.30;;;;;;4966862;28;95696;-62
2022/06/27 04:44:27;;;;;;;64.47;50.83;;;22.60;65.30;;;;;;4973301;28;95318;-62
2022/06/27 04:46:52;;;;;;;64.88;50.85;;;22.60;65.30;;;;;;4970829;28;95020;-61
2022/06/27 04:49:19;;;;;;;67.05;51.05;;;22.50;65.30;;;;;;4972300;28;94382;-62
2022/06/27 04:51:49;;;;;;;65.30;51.05;;;22.50;65.30;;;;;;4966266;28;95368;-62
2022/06/27 04:54:16;;;;;;;67.55;51.17;;;22.50;65.30;;;;;;4965680;28;95538;-62
2022/06/27 04:56:42;;;;;;;65.57;51.40;;;22.50;65.40;;;;;;4970124;28;96916;-61
2022/06/27 04:59:09;;;;;;;67.15;51.25;;;22.50;65.30;;;;;;4968305;28;96094;-61
2022/06/27 05:01:34;;;;;;;65.97;51.25;;;22.50;65.30;;;;;;4966426;28;97178;-62
2022/06/27 05:04:00;;;;;;;67.25;50.97;;;22.50;65.40;;;;;;4963979;28;95115;-62
2022/06/27 05:06:26;;;;;;;65.90;51.47;;;22.50;65.30;;;;;;4965569;28;95443;-62
2022/06/27 05:08:51;;;;;;;66.13;51.10;;;22.50;65.30;;;;;;4970855;28;95260;-62
2022/06/27 05:11:17;;;;;;;66.15;51.08;;;22.50;65.20;;;;;;4963828;28;95784;-61
2022/06/27 05:13:43;;;;;;;67.90;51.53;;;22.40;65.30;;;;;;4971608;28;94070;-62
2022/06/27 05:16:08;;;;;;;66.38;51.45;;;22.40;65.50;;;;;;4958244;28;96733;-62
2022/06/27 05:18:34;;;;;;;66.90;51.90;;;22.40;65.50;;;;;;4971906;28;95527;-62
2022/06/27 05:21:00;;;;;;;67.03;51.35;;;22.40;65.70;;;;;;4960288;28;96248;-61
2022/06/27 05:23:26;;;;;;;66.35;51.10;;;22.40;65.40;;;;;;4971392;28;95960;-62
2022/06/27 05:25:51;;;;;;;68.25;51.22;;;22.40;65.30;;;;;;4966304;28;96036;-61
2022/06/27 05:28:17;;;;;;;67.45;51.78;;;22.30;65.30;;;;;;4968848;28;95702;-62
2022/06/27 05:30:43;;;;;;;66.57;51.70;;;22.30;65.60;;;;;;4961044;28;95661;-61
2022/06/27 05:33:08;;;;;;;66.15;51.38;;;22.30;65.50;;;;;;4964448;28;95528;-61
2022/06/27 05:35:34;;;;;;;67.22;51.33;;;22.30;65.60;;;;;;4973087;28;95037;-62
2022/06/27 05:38:00;;;;;;;66.38;51.33;;;22.20;65.60;;;;;;4968115;28;100168;-62
2022/06/27 05:40:27;;;;;;;68.22;51.92;;;22.20;65.60;;;;;;4964535;28;100131;-61
2022/06/27 05:42:54;;;;;;;67.55;51.75;;;22.20;65.70;;;;;;4961947;28;98131;-62
2022/06/27 05:45:21;;;;;;;69.30;52.13;;;22.30;65.70;;;;;;4960940;28;97179;-61
2022/06/27 05:47:47;;;;;;;69.72;52.28;;;22.60;65.00;;;;;;4970877;28;95159;-61
2022/06/27 05:50:13;;;;;;;69.97;52.55;;;22.70;64.30;;;;;;4970233;28;95837;-61
2022/06/27 05:52:40;;;;;;;70.97;52.42;;;22.80;63.60;;;;;;4964438;28;96735;-61
2022/06/27 05:55:07;;;;;;;68.22;52.60;;;22.80;63.50;;;;;;4971390;28;98310;-61
2022/06/27 05:57:33;;;;;;;68.70;52.28;;;22.80;63.40;;;;;;4967849;28;94962;-62
2022/06/27 05:59:58;;;;;;;69.50;53.70;;;22.60;63.80;;;;;;4964923;28;95509;-62
2022/06/27 06:02:25;;;;;;;69.43;53.10;;;22.50;65.10;;;;;;4970028;28;96170;-62
2022/06/27 06:04:53;;;;;;;69.75;53.03;;;22.50;64.60;;;;;;4970072;28;95190;-61
2022/06/27 06:07:19;;;;;;;70.50;52.83;;;22.60;64.50;;;;;;4969525;28;95730;-62
2022/06/27 06:09:44;;;;;;;69.57;52.70;;;22.60;64.20;;;;;;4973030;28;96630;-62
2022/06/27 06:12:11;;;;;;;69.35;52.63;;;22.80;64.00;;;;;;4962656;28;97263;-62
2022/06/27 06:14:38;;;;;;;76.28;53.92;;;22.60;63.90;;;;;;4970582;28;95032;-62
2022/06/27 06:17:04;;;;;;;76.60;54.20;;;22.40;64.90;;;;;;4970762;28;94850;-62
2022/06/27 06:19:34;;;;;;;73.72;54.03;;;22.40;65.00;;;;;;4976670;28;95373;-62
2022/06/27 06:21:59;;;;;;;73.95;53.53;;;22.50;65.00;;;;;;4964540;28;95090;-61
2022/06/27 06:24:25;;;;;;;74.40;53.78;;;22.60;64.60;;;;;;4977424;28;95690;-62
2022/06/27 06:26:53;;;;;;;74.25;54.17;;;22.70;64.50;;;;;;4972113;28;94163;-62
2022/06/27 06:29:21;;;;;;;75.82;55.13;;;22.80;64.30;;;;;;4975911;28;94984;-61
2022/06/27 06:31:48;;;;;;;78.30;54.80;;;23.00;63.90;;;;;;4971875;28;95862;-62
2022/06/27 06:34:15;;;;;;;78.82;55.50;;;23.10;63.70;;;;;;4969751;28;96861;-62
2022/06/27 06:36:43;;;;;;;78.63;55.63;;;23.20;63.70;;;;;;4964445;28;94732;-62
2022/06/27 06:39:09;;;;;;;74.07;54.88;;;23.10;63.40;;;;;;4976078;28;95324;-62
2022/06/27 06:41:36;;;;;;;78.38;55.78;;;23.10;63.20;;;;;;4969524;28;99177;-62
2022/06/27 06:44:05;;;;;;;77.15;54.80;;;23.10;63.60;;;;;;4972247;28;95496;-62
2022/06/27 06:46:31;;;;;;;77.22;54.95;;;23.10;63.10;;;;;;4971250;28;96133;-62
2022/06/27 06:49:06;;;;;;;75.43;54.47;;;23.10;63.30;;;;;;4968226;28;95482;-62
2022/06/27 06:51:34;;;;;;;72.13;54.17;;;23.00;63.20;;;;;;4972979;28;98808;-62
2022/06/27 06:54:01;;;;;;;77.35;55.15;;;22.80;63.70;;;;;;4970313;28;96855;-63
2022/06/27 06:56:30;;;;;;;73.53;54.55;;;22.90;64.20;;;;;;4965635;28;94765;-62
2022/06/27 06:58:57;;;;;;;76.93;54.20;;;22.90;63.90;;;;;;4972093;28;95788;-62
2022/06/27 07:01:22;;;;;;;72.10;54.00;;;23.00;63.70;;;;;;4969791;28;96661;-62
2022/06/27 07:03:49;;;;;;;74.40;53.47;;;23.00;63.80;;;;;;4968829;28;95331;-62
2022/06/27 07:06:15;;;;;;;70.90;53.90;;;23.00;63.70;;;;;;4967812;28;94919;-62
2022/06/27 07:08:41;;;;;;;69.57;52.97;;;23.10;63.30;;;;;;4974019;28;95325;-62
2022/06/27 07:11:08;;;;;;;72.38;53.58;;;23.10;62.80;;;;;;4973297;28;95026;-62
2022/06/27 07:13:33;;;;;;;70.30;54.17;;;23.20;62.90;;;;;;4969370;28;95202;-63
2022/06/27 07:15:59;;;;;;;71.85;53.35;;;23.20;62.80;;;;;;4971609;28;94164;-62
2022/06/27 07:18:25;;;;;;;73.80;54.08;;;23.30;62.50;;;;;;4970226;28;95459;-62
2022/06/27 07:20:52;;;;;;;74.18;54.10;;;23.30;62.40;;;;;;4974052;28;95670;-62
2022/06/27 07:23:19;;;;;;;68.55;52.88;;;23.30;62.70;;;;;;4972799;28;97138;-62
2022/06/27 07:25:45;;;;;;;70.50;53.20;;;23.40;62.10;;;;;;4975210;28;96249;-62
2022/06/27 07:28:11;;;;;;;66.97;52.47;;;23.40;62.10;;;;;;4965827;28;99665;-62
2022/06/27 07:30:37;;;;;;;72.78;53.28;;;23.50;61.80;;;;;;4971965;28;95644;-62
2022/06/27 07:33:03;;;;;;;70.55;53.35;;;23.50;62.00;;;;;;4970835;28;96892;-63
2022/06/27 07:35:29;;;;;;;72.45;53.28;;;23.50;61.70;;;;;;4974054;28;95847;-63
2022/06/27 07:37:55;;;;;;;68.68;52.88;;;23.50;61.50;;;;;;4967143;28;97279;-62
2022/06/27 07:40:23;;;;;;;69.15;53.00;;;23.60;61.60;;;;;;4973610;28;94966;-62
2022/06/27 07:42:51;;;;;;;69.75;53.35;;;23.60;61.50;;;;;;4963954;28;98791;-63
2022/06/27 07:45:18;;;;;;;72.75;53.17;;;23.60;61.60;;;;;;4972279;28;95393;-62
2022/06/27 07:47:44;;;;;;;74.07;53.17;;;23.60;61.50;;;;;;4970847;28;97208;-62
2022/06/27 07:50:11;;;;;;;71.20;53.72;;;23.60;61.50;;;;;;4974724;28;95793;-62
2022/06/27 07:55:22;;;;;;;69.90;52.97;;;23.50;61.90;;;;;;4973525;28;95042;-62
2022/06/27 07:57:50;;;;;;;70.28;52.97;;;23.50;62.00;;;;;;4967466;28;97991;-62
2022/06/27 08:00:15;;;;;;;70.80;52.85;;;23.50;62.00;;;;;;4974248;28;99711;-62
2022/06/27 08:02:41;;;;;;;71.72;53.40;;;23.50;62.00;;;;;;4971514;28;95752;-62
2022/06/27 08:05:08;;;;;;;69.00;53.17;;;23.50;62.10;;;;;;4959124;28;99826;-62
2022/06/27 08:07:34;;;;;;;69.13;53.38;;;23.50;62.10;;;;;;4955933;28;97394;-62
2022/06/27 08:09:59;;;;;;;70.75;53.30;;;23.50;62.10;;;;;;4966362;28;95962;-62
2022/06/27 08:12:26;;;;;;;70.03;52.42;;;23.60;62.10;;;;;;4964450;28;97589;-62
2022/06/27 08:14:51;;;;;;;68.70;52.90;;;23.60;61.90;;;;;;4969967;28;94823;-62
2022/06/27 08:17:18;;;;;;;68.15;52.85;;;23.50;62.00;;;;;;4969227;28;97645;-63
2022/06/27 08:19:44;;;;;;;69.57;53.15;;;23.50;62.10;;;;;;4969107;28;95311;-63
2022/06/27 08:22:11;;;;;;;67.75;52.75;;;23.50;62.10;;;;;;4968884;28;95064;-62
2022/06/27 08:24:37;;;;;;;71.57;53.47;;;23.50;62.10;;;;;;4956255;28;95176;-62
2022/06/27 08:27:04;;;;;;;71.22;52.95;;;23.60;62.10;;;;;;4970936;28;95155;-62
2022/06/27 08:29:32;;;;;;;70.07;53.08;;;23.60;62.10;;;;;;4970462;28;94872;-62
2022/06/27 08:31:58;;;;;;;69.68;52.88;;;23.50;62.10;;;;;;4968236;28;94971;-62
2022/06/27 08:34:23;;;;;;;70.03;53.03;;;23.50;62.10;;;;;;4967146;28;94695;-62
2022/06/27 08:36:50;;;;;;;70.95;53.53;;;23.60;62.10;;;;;;4975920;28;96519;-62
2022/06/27 08:39:16;;;;;;;70.32;53.45;;;23.60;62.00;;;;;;4961452;28;96468;-62
2022/06/27 08:41:44;;;;;;;69.30;53.22;;;23.60;62.10;;;;;;4970778;28;95273;-62
2022/06/27 08:44:11;;;;;;;70.68;53.33;;;23.60;62.10;;;;;;4955996;28;95417;-63
2022/06/27 08:46:36;;;;;;;71.05;53.83;;;23.70;62.00;;;;;;4970687;28;95757;-62
2022/06/27 08:49:04;;;;;;;68.43;53.25;;;23.80;60.90;;;;;;4963163;28;95284;-62
2022/06/27 08:51:31;;;;;;;69.90;52.80;;;23.90;60.50;;;;;;4972568;28;94685;-62
2022/06/27 08:53:57;;;;;;;67.53;52.92;;;23.90;60.30;;;;;;4963229;28;94843;-62
2022/06/27 08:56:24;;;;;;;70.85;53.38;;;23.80;60.40;;;;;;4973776;28;96037;-62
2022/06/27 08:58:51;;;;;;;69.68;53.00;;;23.80;60.50;;;;;;4964479;28;95308;-62
2022/06/27 09:01:19;;;;;;;68.25;52.60;;;23.80;61.20;;;;;;4967127;28;98128;-62
2022/06/27 09:04:11;;;;;;;73.35;53.13;;;23.70;60.70;;;;;;4961965;28;95543;-62
2022/06/27 09:06:43;;;;;;;72.95;53.05;;;23.80;60.80;;;;;;4965889;28;96151;-62
2022/06/27 09:09:11;;;;;;;70.13;52.80;;;23.80;60.30;;;;;;4966463;28;96689;-62
2022/06/27 09:11:41;;;;;;;71.07;52.85;;;23.70;60.30;;;;;;4976356;28;94892;-61
2022/06/27 09:14:33;;;;;;;72.90;52.53;;;23.70;60.10;;;;;;4964748;28;95046;-62
2022/06/27 09:16:59;;;;;;;;;;;23.70;60.10;;;;;;4976452;28;95493;-62
2022/06/27 09:19:48;;;;;;;69.30;52.70;;;23.70;60.20;;;;;;4965970;28;95107;-62
2022/06/27 09:22:16;;;;;;;69.65;52.22;;;23.70;60.00;;;;;;4968622;28;95017;-62
2022/06/27 09:25:05;;;;;;;68.75;52.15;;;23.70;60.10;;;;;;4965088;28;95215;-62
2022/06/27 09:27:45;;;;;;;68.15;52.10;;;23.70;60.20;;;;;;4971056;28;95907;-62
2022/06/27 09:30:20;;;;;;;67.78;52.17;;;23.70;60.30;;;;;;4951388;28;96370;-62
2022/06/27 09:32:49;;;;;;;67.85;52.28;;;23.60;60.30;;;;;;4974544;28;95974;-62
2022/06/27 09:35:44;;;;;;;68.95;51.95;;;23.60;60.10;;;;;;4969287;28;95832;-62
2022/06/27 09:38:10;;;;;;;68.07;52.30;;;23.60;60.00;;;;;;4966067;28;95374;-62
2022/06/27 09:40:39;;;;;;;67.72;52.13;;;23.60;60.00;;;;;;4971049;28;95234;-62
2022/06/27 09:43:07;;;;;;;72.13;52.08;;;23.50;60.10;;;;;;4966868;28;94828;-62
2022/06/27 09:45:33;;;;;;;66.68;52.13;;;23.50;60.30;;;;;;4973423;28;94435;-62
2022/06/27 09:48:02;;;;;;;67.18;51.97;;;23.50;60.10;;;;;;4975310;28;95448;-62
2022/06/27 09:50:32;;;;;;;67.65;52.30;;;23.50;60.20;;;;;;4967636;28;95455;-62
2022/06/27 09:52:59;;;;;;;68.78;52.67;;;23.50;60.00;;;;;;4972370;28;95769;-62
2022/06/27 09:55:26;;;;;;;67.57;52.35;;;23.40;60.00;;;;;;4966013;28;99097;-61
2022/06/27 09:57:53;;;;;;;71.25;52.53;;;23.40;59.90;;;;;;4967317;28;94693;-61
2022/06/27 10:00:21;;;;;;;67.90;52.83;;;23.40;60.10;;;;;;4962700;28;94707;-62
2022/06/27 10:02:48;;;;;;;66.95;52.35;;;23.40;60.30;;;;;;4970111;28;97776;-62
2022/06/27 10:05:16;;;;;;;68.28;52.47;;;23.40;60.40;;;;;;4961378;28;95175;-62
2022/06/27 10:07:57;;;;;;;67.32;51.78;;;23.40;60.10;;;;;;4975113;28;96085;-62
2022/06/27 10:10:23;;;;;;;66.25;51.53;;;23.40;60.10;;;;;;4966269;28;94252;-62
2022/06/27 10:13:01;;;;;;;69.25;52.13;;;23.30;60.00;;;;;;4974665;28;95805;-62
2022/06/27 10:15:36;;;;;;;66.45;51.95;;;23.20;60.60;;;;;;4968907;28;98010;-62
2022/06/27 10:18:03;;;;;;;67.05;51.85;;;23.10;61.10;;;;;;4970628;28;96666;-62
2022/06/27 10:20:31;;;;;;;65.93;51.83;;;23.00;61.60;;;;;;4968482;28;94983;-61
2022/06/27 10:23:09;;;;;;;68.75;52.05;;;23.00;62.30;;;;;;4973763;28;95692;-62
2022/06/27 10:25:40;;;;;;;70.03;51.42;;;23.10;62.10;;;;;;4967563;28;95315;-61
2022/06/27 10:28:15;;;;;;;68.65;51.80;;;23.20;62.80;;;;;;4971634;28;94703;-62
2022/06/27 10:30:42;;;;;;;66.22;51.55;;;23.00;64.20;;;;;;4966081;28;97084;-62
2022/06/27 10:33:25;;;;;;;67.93;51.45;;;22.90;65.00;;;;;;4972252;28;94863;-61
2022/06/27 10:35:54;;;;;;;66.90;51.45;;;22.90;64.20;;;;;;4966940;28;94294;-62
2022/06/27 10:38:25;;;;;;;66.10;51.50;;;22.90;64.20;;;;;;4978339;28;96027;-62
2022/06/27 10:40:52;;;;;;;68.35;51.22;;;22.90;64.20;;;;;;4967082;28;97688;-62
2022/06/27 10:43:35;;;;;;;66.13;51.08;;;22.90;64.10;;;;;;4970043;28;101313;-61
2022/06/27 10:46:10;;;;;;;67.00;51.28;;;22.80;64.00;;;;;;4966005;28;97839;-61
2022/06/27 10:48:38;;;;;;;65.82;51.00;;;22.70;64.40;;;;;;4976415;28;95446;-61
2022/06/27 10:51:31;;;;;;;66.25;51.00;;;22.70;64.90;;;;;;4962751;28;95071;-62
2022/06/27 10:54:06;;;;;;;66.75;51.35;;;22.50;65.60;;;;;;4972675;28;95416;-62
2022/06/27 10:56:41;;;;;;;66.07;51.08;;;22.40;65.90;;;;;;4971094;28;95551;-61
2022/06/27 10:59:29;;;;;;;66.45;51.25;;;22.40;66.50;;;;;;4971441;28;101164;-61
2022/06/27 11:01:57;;;;;;;66.38;51.20;;;22.40;66.80;;;;;;4950797;28;95079;-61
2022/06/27 11:04:34;;;;;;;66.88;51.28;;;22.40;66.50;;;;;;4971564;28;94954;-61
2022/06/27 11:07:08;;;;;;;66.93;51.28;;;22.50;66.60;;;;;;4972148;28;95104;-61
2022/06/27 11:09:38;;;;;;;66.75;51.38;;;22.40;66.50;;;;;;4966085;28;100506;-61
2022/06/27 11:12:08;;;;;;;65.72;51.35;;;22.40;66.70;;;;;;4971430;28;95580;-61
2022/06/27 11:14:45;;;;;;;65.97;51.20;;;22.40;66.50;;;;;;4967771;28;95063;-61
2022/06/27 11:17:39;;;;;;;67.97;51.25;;;22.50;66.50;;;;;;4969079;28;96243;-61
2022/06/27 11:20:18;;;;;;;65.85;51.05;;;22.50;66.60;;;;;;4966757;28;96514;-60
2022/06/27 11:22:46;;;;;;;65.72;51.17;;;22.50;66.80;;;;;;4967349;28;95212;-61
2022/06/27 11:25:12;;;;;;;64.53;51.03;;;22.40;67.00;;;;;;4966186;28;94712;-60
2022/06/27 11:33:31;;;;;;;64.22;50.97;;;22.30;67.40;;;;;;4971304;28;94914;-60
2022/06/27 11:35:58;;;;;;;65.00;51.20;;;22.30;67.50;;;;;;4966451;28;95900;-61
2022/06/27 11:38:43;;;;;;;64.80;51.03;;;22.30;67.50;;;;;;4971962;28;96203;-61
2022/06/27 11:41:11;;;;;;;65.63;51.15;;;22.30;67.40;;;;;;4966196;28;95364;-61
2022/06/27 11:44:00;;;;;;;66.82;51.30;;;22.30;67.40;;;;;;4973610;28;100478;-61
2022/06/27 11:46:32;;;;;;;64.28;50.95;;;22.40;67.40;;;;;;4966289;28;96563;-62
2022/06/27 11:49:03;;;;;;;65.97;50.90;;;22.30;67.50;;;;;;4973625;28;94690;-61
2022/06/27 11:51:48;;;;;;;64.80;50.70;;;22.40;67.50;;;;;;4975492;28;95083;-61
2022/06/27 11:54:19;;;;;;;64.43;50.88;;;22.40;67.40;;;;;;4979210;28;95640;-61
2022/06/27 11:56:47;;;;;;;66.43;51.05;;;22.30;67.50;;;;;;4966141;28;100528;-61
2022/06/27 11:59:15;;;;;;;64.38;50.88;;;22.40;67.50;;;;;;4969178;28;95010;-61
2022/06/27 12:01:54;;;;;;;64.97;50.65;;;22.40;67.10;;;;;;4969151;28;96253;-61
2022/06/27 12:04:25;;;;;;;64.30;50.85;;;22.50;66.80;;;;;;4966047;28;96029;-61
2022/06/27 12:06:58;;;;;;;63.92;50.90;;;22.60;66.60;;;;;;4947741;28;95251;-60
2022/06/27 12:09:27;;;;;;;64.53;50.80;;;22.60;66.40;;;;;;4976084;28;95744;-61
2022/06/27 12:12:04;;;;;;;65.93;51.10;;;22.70;65.80;;;;;;4972407;28;95526;-60
2022/06/27 12:14:42;;;;;;;65.07;50.55;;;22.80;65.80;;;;;;4972173;28;95059;-61
2022/06/27 12:17:08;;;;;;;64.30;50.60;;;22.90;65.20;;;;;;4964683;28;95033;-61
2022/06/27 12:19:33;;;;;;;64.38;50.78;;;23.00;64.70;;;;;;4970967;28;94327;-61
2022/06/27 12:21:59;;;;;;;63.92;50.42;;;22.90;64.60;;;;;;4973338;28;96213;-61
2022/06/27 12:24:25;;;;;;;66.10;50.72;;;23.00;64.10;;;;;;4971356;28;95727;-61
2022/06/27 12:26:50;;;;;;;65.32;51.05;;;23.10;63.60;;;;;;4968817;28;100861;-61
2022/06/27 12:29:17;;;;;;;64.63;50.65;;;23.20;63.70;;;;;;4965736;28;94903;-61
2022/06/27 12:31:43;;;;;;;63.75;50.38;;;23.20;63.10;;;;;;4964801;28;95537;-61
2022/06/27 12:34:09;;;;;;;64.97;50.53;;;23.30;63.10;;;;;;4970638;28;95070;-61
2022/06/27 12:36:35;;;;;;;65.35;50.55;;;23.30;62.90;;;;;;4972080;28;94870;-60
2022/06/27 12:39:02;;;;;;;64.60;50.78;;;23.30;62.90;;;;;;4971177;28;95224;-61